Eugene, OR

11:17 AM PST on February 01, 2015 (GMT -0800)
McNary | Change Station
CLOSE
Current Station
Airport
Location: Salem,
Elevation: 200 ft
Nearby Weather Stations

Elev 200 ft 44.91 °N, 123.00 °W | Updated 21 minutes ago

Overcast
Overcast
42 °F
Feels Like 40 °F
N
4
Wind Variable Wind from SSE

Today
High -- | Low -- °F
--% Chance of Precip.
Yesterday
High -- | Low -- °F
Precip. -- in
7:29 AM 5:22 PM
Waxing Gibbous, 96% visible
Pressure 30.16 in
Visibility 4.0 miles
Clouds Mostly Cloudy 500 ft
Overcast 4500 ft
Windchill 40 °F
Dew Point 40 °F
Humidity 92%
Rainfall 0.24 in
Snow Depth Not available.
UV 1 out of 12
Pollen 4.20 out of 12
Air Quality Not available.
Flu Activity Not available.
METAR KSLE 011856Z 16003KT 4SM -RA BR BKN005 OVC045 06/04 A3015 RMK AO2 SLP212 P0004 T00560044

More Conditions Fewer Conditions

Pressure 30.16 in
Visibility 4.0 miles
Clouds Mostly Cloudy 500 ft
Overcast 4500 ft
Windchill 40 °F
Dew Point 40 °F
Humidity 92%
Rainfall 0.24 in
Snow Depth Not available.
UV 1 out of 12
Pollen 4.20 out of 12
Air Quality Not available.
Flu Activity Not available.
METAR KSLE 011856Z 16003KT 4SM -RA BR BKN005 OVC045 06/04 A3015 RMK AO2 SLP212 P0004 T00560044

More Conditions Fewer Conditions

10-Day Weather Forecast

Almanac

Astronomy

Feb. 01, 2015 Rise Set
Actual Time
Civil Twilight
Nautical Twilight
Astronomical Twilight
Moon
Length of Visible Light
Length of Day
Tomorrow will be .
, % of the Moon is Illuminated

Today's Extremes

State Highs State Lows

Community

WunderPhotos

Upload Photos

1,792,457 photos uploaded!

WunderBlogs® & News

Nearby

Air Quality

  Air Quality AQ Index Pollutant
Not available.

Snow Depth

Station Depth Elevation

Earthquake Activity

City Distance Mag. Time & Date
Minimum magnitude displayed is 2.5.

Coastal Water Temperatures

Place Temperature

Nearby Weather Stations